sensor_id;sensor_type;location;lat;lon;timestamp;temperature;humidity
17152;DHT22;8691;50.828;4.700;2023-06-14T00:01:13;18.40;99.90
17152;DHT22;8691;50.828;4.700;2023-06-14T00:03:50;18.40;99.90
17152;DHT22;8691;50.828;4.700;2023-06-14T00:06:28;18.30;99.90
17152;DHT22;8691;50.828;4.700;2023-06-14T00:09:04;18.20;99.90
17152;DHT22;8691;50.828;4.700;2023-06-14T00:11:40;18.20;99.90
17152;DHT22;8691;50.828;4.700;2023-06-14T00:14:17;18.10;99.90
17152;DHT22;8691;50.828;4.700;2023-06-14T00:16:54;18.10;99.90
17152;DHT22;8691;50.828;4.700;2023-06-14T00:19:31;18.10;99.90
17152;DHT22;8691;50.828;4.700;2023-06-14T00:22:07;18.00;99.90
17152;DHT22;8691;50.828;4.700;2023-06-14T00:24:45;17.90;99.90
17152;DHT22;8691;50.828;4.700;2023-06-14T00:27:21;17.90;99.90
17152;DHT22;8691;50.828;4.700;2023-06-14T00:29:58;17.90;99.90
17152;DHT22;8691;50.828;4.700;2023-06-14T00:32:35;17.90;99.90
17152;DHT22;8691;50.828;4.700;2023-06-14T00:35:12;17.80;99.90
17152;DHT22;8691;50.828;4.700;2023-06-14T00:37:48;17.80;99.90
17152;DHT22;8691;50.828;4.700;2023-06-14T00:40:25;17.80;99.90
17152;DHT22;8691;50.828;4.700;2023-06-14T00:43:02;17.90;99.90
17152;DHT22;8691;50.828;4.700;2023-06-14T00:45:38;17.80;99.90
17152;DHT22;8691;50.828;4.700;2023-06-14T00:48:15;17.70;99.90
17152;DHT22;8691;50.828;4.700;2023-06-14T00:50:52;17.60;99.90
17152;DHT22;8691;50.828;4.700;2023-06-14T00:53:28;17.60;99.90
17152;DHT22;8691;50.828;4.700;2023-06-14T00:56:05;17.50;99.90
17152;DHT22;8691;50.828;4.700;2023-06-14T00:58:42;17.50;99.90
17152;DHT22;8691;50.828;4.700;2023-06-14T01:01:18;17.40;99.90
17152;DHT22;8691;50.828;4.700;2023-06-14T01:03:55;17.30;99.90
17152;DHT22;8691;50.828;4.700;2023-06-14T01:06:54;17.30;99.90
17152;DHT22;8691;50.828;4.700;2023-06-14T01:15:09;17.20;99.90
17152;DHT22;8691;50.828;4.700;2023-06-14T01:17:46;17.20;99.90
17152;DHT22;8691;50.828;4.700;2023-06-14T01:20:23;17.20;99.90
17152;DHT22;8691;50.828;4.700;2023-06-14T01:22:59;17.20;99.90
17152;DHT22;8691;50.828;4.700;2023-06-14T01:25:36;17.20;99.90
17152;DHT22;8691;50.828;4.700;2023-06-14T01:28:15;17.10;99.90
17152;DHT22;8691;50.828;4.700;2023-06-14T01:30:51;17.10;99.90
17152;DHT22;8691;50.828;4.700;2023-06-14T01:33:28;17.00;99.90
17152;DHT22;8691;50.828;4.700;2023-06-14T01:36:05;17.00;99.90
17152;DHT22;8691;50.828;4.700;2023-06-14T01:38:42;17.00;99.90
17152;DHT22;8691;50.828;4.700;2023-06-14T01:41:18;17.00;99.90
17152;DHT22;8691;50.828;4.700;2023-06-14T01:43:55;16.90;99.90
17152;DHT22;8691;50.828;4.700;2023-06-14T01:46:32;16.80;99.90
17152;DHT22;8691;50.828;4.700;2023-06-14T01:49:08;16.80;99.90
17152;DHT22;8691;50.828;4.700;2023-06-14T01:51:45;16.80;99.90
17152;DHT22;8691;50.828;4.700;2023-06-14T01:54:22;16.70;99.90
17152;DHT22;8691;50.828;4.700;2023-06-14T01:56:58;16.70;99.90
17152;DHT22;8691;50.828;4.700;2023-06-14T01:59:35;16.70;99.90
17152;DHT22;8691;50.828;4.700;2023-06-14T02:02:11;16.60;99.90
17152;DHT22;8691;50.828;4.700;2023-06-14T02:04:49;16.30;99.90
17152;DHT22;8691;50.828;4.700;2023-06-14T02:07:26;16.30;99.90
17152;DHT22;8691;50.828;4.700;2023-06-14T02:10:03;16.30;99.90
17152;DHT22;8691;50.828;4.700;2023-06-14T02:12:39;16.30;99.90
17152;DHT22;8691;50.828;4.700;2023-06-14T02:15:16;16.40;99.90
17152;DHT22;8691;50.828;4.700;2023-06-14T02:17:55;16.40;99.90
17152;DHT22;8691;50.828;4.700;2023-06-14T02:20:32;16.40;99.90
17152;DHT22;8691;50.828;4.700;2023-06-14T02:23:08;16.30;99.90
17152;DHT22;8691;50.828;4.700;2023-06-14T02:25:46;16.30;99.90
17152;DHT22;8691;50.828;4.700;2023-06-14T02:28:23;16.30;99.90
17152;DHT22;8691;50.828;4.700;2023-06-14T02:30:59;16.30;99.90
17152;DHT22;8691;50.828;4.700;2023-06-14T02:33:36;16.30;99.90
17152;DHT22;8691;50.828;4.700;2023-06-14T02:36:14;16.30;99.90
17152;DHT22;8691;50.828;4.700;2023-06-14T02:38:50;16.30;99.90
17152;DHT22;8691;50.828;4.700;2023-06-14T02:41:27;16.30;99.90
17152;DHT22;8691;50.828;4.700;2023-06-14T02:44:04;16.30;99.90
17152;DHT22;8691;50.828;4.700;2023-06-14T02:46:40;16.30;99.90
17152;DHT22;8691;50.828;4.700;2023-06-14T02:49:17;16.30;99.90
17152;DHT22;8691;50.828;4.700;2023-06-14T02:51:53;16.20;99.90
17152;DHT22;8691;50.828;4.700;2023-06-14T02:54:30;16.20;99.90
17152;DHT22;8691;50.828;4.700;2023-06-14T02:57:07;16.20;99.90
17152;DHT22;8691;50.828;4.700;2023-06-14T02:59:44;16.10;99.90
17152;DHT22;8691;50.828;4.700;2023-06-14T03:02:20;16.10;99.90
17152;DHT22;8691;50.828;4.700;2023-06-14T03:04:57;16.10;99.90
17152;DHT22;8691;50.828;4.700;2023-06-14T03:07:34;16.00;99.90
17152;DHT22;8691;50.828;4.700;2023-06-14T03:10:11;16.10;99.90
17152;DHT22;8691;50.828;4.700;2023-06-14T03:12:48;16.10;99.90
17152;DHT22;8691;50.828;4.700;2023-06-14T03:15:24;16.10;99.90
17152;DHT22;8691;50.828;4.700;2023-06-14T03:18:01;16.10;99.90
17152;DHT22;8691;50.828;4.700;2023-06-14T03:20:38;16.00;99.90
17152;DHT22;8691;50.828;4.700;2023-06-14T03:23:14;16.00;99.90
17152;DHT22;8691;50.828;4.700;2023-06-14T03:25:51;16.00;99.90
17152;DHT22;8691;50.828;4.700;2023-06-14T03:28:28;16.00;99.90
17152;DHT22;8691;50.828;4.700;2023-06-14T03:31:04;15.90;99.90
17152;DHT22;8691;50.828;4.700;2023-06-14T03:33:41;16.00;99.90
17152;DHT22;8691;50.828;4.700;2023-06-14T03:36:18;15.90;99.90
17152;DHT22;8691;50.828;4.700;2023-06-14T03:38:54;16.00;99.90
17152;DHT22;8691;50.828;4.700;2023-06-14T03:41:31;16.10;99.90
17152;DHT22;8691;50.828;4.700;2023-06-14T03:44:09;16.20;99.90
17152;DHT22;8691;50.828;4.700;2023-06-14T03:46:45;16.20;99.90
17152;DHT22;8691;50.828;4.700;2023-06-14T03:49:23;16.30;99.90
17152;DHT22;8691;50.828;4.700;2023-06-14T03:51:59;16.30;99.90
17152;DHT22;8691;50.828;4.700;2023-06-14T03:54:36;16.50;99.90
17152;DHT22;8691;50.828;4.700;2023-06-14T03:57:13;16.50;99.90
17152;DHT22;8691;50.828;4.700;2023-06-14T03:59:50;16.60;99.90
17152;DHT22;8691;50.828;4.700;2023-06-14T04:02:26;16.60;99.90
17152;DHT22;8691;50.828;4.700;2023-06-14T04:05:03;16.60;99.90
17152;DHT22;8691;50.828;4.700;2023-06-14T04:07:40;16.60;99.90
17152;DHT22;8691;50.828;4.700;2023-06-14T04:10:16;16.60;99.90
17152;DHT22;8691;50.828;4.700;2023-06-14T04:12:53;16.70;99.90
17152;DHT22;8691;50.828;4.700;2023-06-14T04:15:30;16.70;99.90
17152;DHT22;8691;50.828;4.700;2023-06-14T04:18:06;16.80;99.90
17152;DHT22;8691;50.828;4.700;2023-06-14T04:20:43;17.00;99.90
17152;DHT22;8691;50.828;4.700;2023-06-14T04:23:19;17.10;99.90
17152;DHT22;8691;50.828;4.700;2023-06-14T04:25:56;17.20;99.90
17152;DHT22;8691;50.828;4.700;2023-06-14T04:28:33;17.30;99.90
17152;DHT22;8691;50.828;4.700;2023-06-14T04:31:10;17.40;99.90
17152;DHT22;8691;50.828;4.700;2023-06-14T04:33:46;17.50;99.90
17152;DHT22;8691;50.828;4.700;2023-06-14T04:36:23;17.60;99.90
17152;DHT22;8691;50.828;4.700;2023-06-14T04:39:00;17.80;99.90
17152;DHT22;8691;50.828;4.700;2023-06-14T04:41:37;17.90;99.90
17152;DHT22;8691;50.828;4.700;2023-06-14T04:44:13;18.00;99.90
17152;DHT22;8691;50.828;4.700;2023-06-14T04:46:50;18.20;99.90
17152;DHT22;8691;50.828;4.700;2023-06-14T04:49:27;18.30;99.90
17152;DHT22;8691;50.828;4.700;2023-06-14T04:52:03;18.40;99.90
17152;DHT22;8691;50.828;4.700;2023-06-14T04:54:40;18.50;99.90
17152;DHT22;8691;50.828;4.700;2023-06-14T04:57:19;18.50;99.90
17152;DHT22;8691;50.828;4.700;2023-06-14T04:59:56;18.60;99.90
17152;DHT22;8691;50.828;4.700;2023-06-14T05:02:33;18.70;99.90
17152;DHT22;8691;50.828;4.700;2023-06-14T05:05:09;18.80;99.90
17152;DHT22;8691;50.828;4.700;2023-06-14T05:07:46;18.90;99.90
17152;DHT22;8691;50.828;4.700;2023-06-14T05:10:24;19.10;99.90
17152;DHT22;8691;50.828;4.700;2023-06-14T05:13:00;19.10;99.90
17152;DHT22;8691;50.828;4.700;2023-06-14T05:15:37;19.20;99.90
17152;DHT22;8691;50.828;4.700;2023-06-14T05:18:14;19.30;99.90
17152;DHT22;8691;50.828;4.700;2023-06-14T05:20:51;19.80;99.20
17152;DHT22;8691;50.828;4.700;2023-06-14T05:23:27;20.60;97.80
17152;DHT22;8691;50.828;4.700;2023-06-14T05:26:04;21.80;95.00
17152;DHT22;8691;50.828;4.700;2023-06-14T05:28:41;23.40;93.00
17152;DHT22;8691;50.828;4.700;2023-06-14T05:31:18;25.50;86.90
17152;DHT22;8691;50.828;4.700;2023-06-14T05:33:54;27.00;78.30
17152;DHT22;8691;50.828;4.700;2023-06-14T05:36:32;29.10;66.90
17152;DHT22;8691;50.828;4.700;2023-06-14T05:39:08;29.10;66.80
17152;DHT22;8691;50.828;4.700;2023-06-14T05:41:45;29.80;63.80
17152;DHT22;8691;50.828;4.700;2023-06-14T05:44:21;30.20;61.50
17152;DHT22;8691;50.828;4.700;2023-06-14T05:46:58;30.20;59.80
17152;DHT22;8691;50.828;4.700;2023-06-14T05:49:35;30.30;59.20
17152;DHT22;8691;50.828;4.700;2023-06-14T05:52:12;30.90;58.20
17152;DHT22;8691;50.828;4.700;2023-06-14T05:54:49;31.20;56.70
17152;DHT22;8691;50.828;4.700;2023-06-14T05:57:25;31.40;55.50
17152;DHT22;8691;50.828;4.700;2023-06-14T06:00:03;32.70;53.90
17152;DHT22;8691;50.828;4.700;2023-06-14T06:02:40;32.70;53.90
17152;DHT22;8691;50.828;4.700;2023-06-14T06:05:16;32.80;52.60
17152;DHT22;8691;50.828;4.700;2023-06-14T06:07:53;32.70;51.90
17152;DHT22;8691;50.828;4.700;2023-06-14T06:10:30;33.10;51.60
17152;DHT22;8691;50.828;4.700;2023-06-14T06:13:06;33.20;50.90
17152;DHT22;8691;50.828;4.700;2023-06-14T06:15:43;33.50;50.20
17152;DHT22;8691;50.828;4.700;2023-06-14T06:18:20;33.90;48.90
17152;DHT22;8691;50.828;4.700;2023-06-14T06:20:57;33.30;49.50
17152;DHT22;8691;50.828;4.700;2023-06-14T06:23:33;33.50;48.60
17152;DHT22;8691;50.828;4.700;2023-06-14T06:26:10;34.20;47.70
17152;DHT22;8691;50.828;4.700;2023-06-14T06:28:46;34.30;46.90
17152;DHT22;8691;50.828;4.700;2023-06-14T06:31:23;34.20;47.20
17152;DHT22;8691;50.828;4.700;2023-06-14T06:34:00;34.50;47.10
17152;DHT22;8691;50.828;4.700;2023-06-14T06:36:37;34.70;45.80
17152;DHT22;8691;50.828;4.700;2023-06-14T06:39:13;34.70;43.90
17152;DHT22;8691;50.828;4.700;2023-06-14T06:41:50;34.10;45.90
17152;DHT22;8691;50.828;4.700;2023-06-14T06:44:27;34.80;44.80
17152;DHT22;8691;50.828;4.700;2023-06-14T06:47:04;34.90;44.10
17152;DHT22;8691;50.828;4.700;2023-06-14T06:49:41;34.70;44.40
17152;DHT22;8691;50.828;4.700;2023-06-14T06:52:17;34.50;44.60
17152;DHT22;8691;50.828;4.700;2023-06-14T06:54:54;34.90;44.00
17152;DHT22;8691;50.828;4.700;2023-06-14T06:57:31;35.40;43.60
17152;DHT22;8691;50.828;4.700;2023-06-14T07:00:08;35.30;43.50
17152;DHT22;8691;50.828;4.700;2023-06-14T07:02:45;35.60;43.20
17152;DHT22;8691;50.828;4.700;2023-06-14T07:05:21;35.30;42.40
17152;DHT22;8691;50.828;4.700;2023-06-14T07:07:58;35.30;42.90
17152;DHT22;8691;50.828;4.700;2023-06-14T07:10:35;35.60;42.70
17152;DHT22;8691;50.828;4.700;2023-06-14T07:13:12;36.50;42.20
17152;DHT22;8691;50.828;4.700;2023-06-14T07:15:48;36.20;42.70
17152;DHT22;8691;50.828;4.700;2023-06-14T07:18:25;36.60;42.60
17152;DHT22;8691;50.828;4.700;2023-06-14T07:21:02;36.50;42.50
17152;DHT22;8691;50.828;4.700;2023-06-14T07:23:39;37.30;42.00
17152;DHT22;8691;50.828;4.700;2023-06-14T07:26:15;37.80;41.70
17152;DHT22;8691;50.828;4.700;2023-06-14T07:28:52;37.80;41.40
17152;DHT22;8691;50.828;4.700;2023-06-14T07:31:29;38.50;40.10
17152;DHT22;8691;50.828;4.700;2023-06-14T07:34:06;38.80;39.90
17152;DHT22;8691;50.828;4.700;2023-06-14T07:36:42;38.90;39.60
17152;DHT22;8691;50.828;4.700;2023-06-14T07:39:19;38.80;40.00
17152;DHT22;8691;50.828;4.700;2023-06-14T07:41:56;39.00;39.60
17152;DHT22;8691;50.828;4.700;2023-06-14T07:44:32;39.20;39.50
17152;DHT22;8691;50.828;4.700;2023-06-14T07:47:09;38.90;39.50
17152;DHT22;8691;50.828;4.700;2023-06-14T07:49:46;38.40;39.90
17152;DHT22;8691;50.828;4.700;2023-06-14T07:52:23;38.40;40.10
17152;DHT22;8691;50.828;4.700;2023-06-14T07:54:59;38.40;39.90
17152;DHT22;8691;50.828;4.700;2023-06-14T07:57:36;38.60;39.60
17152;DHT22;8691;50.828;4.700;2023-06-14T08:00:14;38.60;40.00
17152;DHT22;8691;50.828;4.700;2023-06-14T08:02:50;38.60;39.90
17152;DHT22;8691;50.828;4.700;2023-06-14T08:05:27;38.90;38.10
17152;DHT22;8691;50.828;4.700;2023-06-14T08:08:04;38.60;39.20
17152;DHT22;8691;50.828;4.700;2023-06-14T08:10:40;38.90;38.80
17152;DHT22;8691;50.828;4.700;2023-06-14T08:13:17;38.80;39.30
17152;DHT22;8691;50.828;4.700;2023-06-14T08:15:54;39.30;38.80
17152;DHT22;8691;50.828;4.700;2023-06-14T08:18:31;38.60;40.00
17152;DHT22;8691;50.828;4.700;2023-06-14T08:21:07;38.00;39.30
17152;DHT22;8691;50.828;4.700;2023-06-14T08:23:44;37.60;40.40
17152;DHT22;8691;50.828;4.700;2023-06-14T08:26:21;37.60;39.70
17152;DHT22;8691;50.828;4.700;2023-06-14T08:28:57;37.60;40.80
17152;DHT22;8691;50.828;4.700;2023-06-14T08:31:34;38.40;40.00
17152;DHT22;8691;50.828;4.700;2023-06-14T08:34:11;38.10;40.00
17152;DHT22;8691;50.828;4.700;2023-06-14T08:36:48;38.20;40.20
17152;DHT22;8691;50.828;4.700;2023-06-14T08:39:24;37.80;39.60
17152;DHT22;8691;50.828;4.700;2023-06-14T08:42:01;37.50;40.20
17152;DHT22;8691;50.828;4.700;2023-06-14T08:44:38;37.00;39.50
17152;DHT22;8691;50.828;4.700;2023-06-14T08:47:15;37.00;39.50
17152;DHT22;8691;50.828;4.700;2023-06-14T08:49:52;36.30;41.00
17152;DHT22;8691;50.828;4.700;2023-06-14T08:52:28;36.90;41.90
17152;DHT22;8691;50.828;4.700;2023-06-14T08:55:06;37.80;40.60
17152;DHT22;8691;50.828;4.700;2023-06-14T08:57:42;37.80;41.30
17152;DHT22;8691;50.828;4.700;2023-06-14T09:00:19;37.10;41.50
17152;DHT22;8691;50.828;4.700;2023-06-14T09:02:55;38.00;39.80
17152;DHT22;8691;50.828;4.700;2023-06-14T09:05:32;37.40;41.00
17152;DHT22;8691;50.828;4.700;2023-06-14T09:08:08;37.10;39.50
17152;DHT22;8691;50.828;4.700;2023-06-14T09:10:45;37.40;39.80
17152;DHT22;8691;50.828;4.700;2023-06-14T09:13:22;37.30;39.40
17152;DHT22;8691;50.828;4.700;2023-06-14T09:15:59;37.30;39.40
17152;DHT22;8691;50.828;4.700;2023-06-14T09:18:45;37.00;40.40
17152;DHT22;8691;50.828;4.700;2023-06-14T09:21:21;37.60;38.90
17152;DHT22;8691;50.828;4.700;2023-06-14T09:23:59;37.00;40.00
17152;DHT22;8691;50.828;4.700;2023-06-14T09:26:35;37.00;39.90
17152;DHT22;8691;50.828;4.700;2023-06-14T09:29:12;37.20;39.50
17152;DHT22;8691;50.828;4.700;2023-06-14T09:31:49;37.10;38.90
17152;DHT22;8691;50.828;4.700;2023-06-14T09:34:25;36.80;38.70
17152;DHT22;8691;50.828;4.700;2023-06-14T09:37:02;36.90;38.50
17152;DHT22;8691;50.828;4.700;2023-06-14T09:39:51;36.70;39.40
17152;DHT22;8691;50.828;4.700;2023-06-14T09:42:28;37.10;38.00
17152;DHT22;8691;50.828;4.700;2023-06-14T09:45:04;37.10;37.40
17152;DHT22;8691;50.828;4.700;2023-06-14T09:47:41;36.60;37.30
17152;DHT22;8691;50.828;4.700;2023-06-14T09:50:18;36.20;38.10
17152;DHT22;8691;50.828;4.700;2023-06-14T09:52:55;36.20;38.30
17152;DHT22;8691;50.828;4.700;2023-06-14T09:55:31;36.90;37.60
17152;DHT22;8691;50.828;4.700;2023-06-14T09:58:08;37.10;37.50
17152;DHT22;8691;50.828;4.700;2023-06-14T10:00:44;37.10;36.80
17152;DHT22;8691;50.828;4.700;2023-06-14T10:03:22;36.40;38.00
17152;DHT22;8691;50.828;4.700;2023-06-14T10:05:58;36.50;38.40
17152;DHT22;8691;50.828;4.700;2023-06-14T10:08:34;36.60;38.80
17152;DHT22;8691;50.828;4.700;2023-06-14T10:11:11;36.60;38.40
17152;DHT22;8691;50.828;4.700;2023-06-14T10:13:47;36.00;39.40
17152;DHT22;8691;50.828;4.700;2023-06-14T10:16:39;36.00;39.10
17152;DHT22;8691;50.828;4.700;2023-06-14T10:19:20;36.30;39.40
17152;DHT22;8691;50.828;4.700;2023-06-14T10:22:00;36.10;39.00
17152;DHT22;8691;50.828;4.700;2023-06-14T10:24:41;36.00;38.30
17152;DHT22;8691;50.828;4.700;2023-06-14T10:27:17;36.30;37.80
17152;DHT22;8691;50.828;4.700;2023-06-14T10:32:31;34.60;37.20
17152;DHT22;8691;50.828;4.700;2023-06-14T10:35:08;33.30;40.60
17152;DHT22;8691;50.828;4.700;2023-06-14T10:37:46;33.20;40.50
17152;DHT22;8691;50.828;4.700;2023-06-14T10:40:30;33.80;39.20
17152;DHT22;8691;50.828;4.700;2023-06-14T10:43:22;33.90;39.30
17152;DHT22;8691;50.828;4.700;2023-06-14T10:46:17;34.20;38.70
17152;DHT22;8691;50.828;4.700;2023-06-14T10:48:56;34.20;40.90
17152;DHT22;8691;50.828;4.700;2023-06-14T10:51:31;32.90;41.60
17152;DHT22;8691;50.828;4.700;2023-06-14T10:54:07;32.30;41.70
17152;DHT22;8691;50.828;4.700;2023-06-14T10:56:48;31.80;42.10
17152;DHT22;8691;50.828;4.700;2023-06-14T10:59:24;31.70;42.00
17152;DHT22;8691;50.828;4.700;2023-06-14T11:02:11;31.30;42.30
17152;DHT22;8691;50.828;4.700;2023-06-14T11:10:38;30.70;42.60
17152;DHT22;8691;50.828;4.700;2023-06-14T11:13:15;30.80;43.00
17152;DHT22;8691;50.828;4.700;2023-06-14T11:15:51;31.00;42.20
17152;DHT22;8691;50.828;4.700;2023-06-14T11:18:28;30.10;43.80
17152;DHT22;8691;50.828;4.700;2023-06-14T11:21:05;30.10;43.20
17152;DHT22;8691;50.828;4.700;2023-06-14T11:23:42;29.80;43.50
17152;DHT22;8691;50.828;4.700;2023-06-14T11:26:28;30.00;43.70
17152;DHT22;8691;50.828;4.700;2023-06-14T11:29:04;30.00;43.10
17152;DHT22;8691;50.828;4.700;2023-06-14T11:31:44;29.90;43.00
17152;DHT22;8691;50.828;4.700;2023-06-14T11:34:20;29.80;43.20
17152;DHT22;8691;50.828;4.700;2023-06-14T11:36:57;30.20;43.20
17152;DHT22;8691;50.828;4.700;2023-06-14T11:39:33;30.30;43.00
17152;DHT22;8691;50.828;4.700;2023-06-14T11:42:20;30.10;43.40
17152;DHT22;8691;50.828;4.700;2023-06-14T11:44:47;30.10;42.80
17152;DHT22;8691;50.828;4.700;2023-06-14T11:47:23;30.00;43.10
17152;DHT22;8691;50.828;4.700;2023-06-14T11:50:00;30.10;44.80
17152;DHT22;8691;50.828;4.700;2023-06-14T11:52:37;30.00;42.80
17152;DHT22;8691;50.828;4.700;2023-06-14T11:55:16;29.90;43.00
17152;DHT22;8691;50.828;4.700;2023-06-14T11:57:55;29.90;42.80
17152;DHT22;8691;50.828;4.700;2023-06-14T12:00:34;29.60;43.60
17152;DHT22;8691;50.828;4.700;2023-06-14T12:03:09;29.60;43.60
17152;DHT22;8691;50.828;4.700;2023-06-14T12:05:46;29.60;44.20
17152;DHT22;8691;50.828;4.700;2023-06-14T12:08:23;29.60;44.00
17152;DHT22;8691;50.828;4.700;2023-06-14T12:10:59;29.90;44.20
17152;DHT22;8691;50.828;4.700;2023-06-14T12:13:39;30.00;43.90
17152;DHT22;8691;50.828;4.700;2023-06-14T12:16:12;30.00;43.30
17152;DHT22;8691;50.828;4.700;2023-06-14T12:18:49;29.70;43.70
17152;DHT22;8691;50.828;4.700;2023-06-14T12:21:26;29.50;43.70
17152;DHT22;8691;50.828;4.700;2023-06-14T12:24:03;29.40;43.40
17152;DHT22;8691;50.828;4.700;2023-06-14T12:26:39;29.40;43.00
17152;DHT22;8691;50.828;4.700;2023-06-14T12:29:16;29.50;43.70
17152;DHT22;8691;50.828;4.700;2023-06-14T12:31:52;29.80;44.00
17152;DHT22;8691;50.828;4.700;2023-06-14T12:34:29;29.80;43.20
17152;DHT22;8691;50.828;4.700;2023-06-14T12:37:06;29.60;42.80
17152;DHT22;8691;50.828;4.700;2023-06-14T12:39:42;29.40;43.60
17152;DHT22;8691;50.828;4.700;2023-06-14T12:42:19;29.30;43.30
17152;DHT22;8691;50.828;4.700;2023-06-14T12:44:56;29.20;42.50
17152;DHT22;8691;50.828;4.700;2023-06-14T12:47:33;29.20;43.00
17152;DHT22;8691;50.828;4.700;2023-06-14T12:50:10;29.10;43.00
17152;DHT22;8691;50.828;4.700;2023-06-14T12:52:46;29.30;43.00
17152;DHT22;8691;50.828;4.700;2023-06-14T12:55:23;29.10;43.10
17152;DHT22;8691;50.828;4.700;2023-06-14T12:58:00;29.20;42.60
17152;DHT22;8691;50.828;4.700;2023-06-14T13:00:36;29.10;42.90
17152;DHT22;8691;50.828;4.700;2023-06-14T13:03:13;29.10;42.70
17152;DHT22;8691;50.828;4.700;2023-06-14T13:05:50;28.90;43.30
17152;DHT22;8691;50.828;4.700;2023-06-14T13:08:27;29.00;43.20
17152;DHT22;8691;50.828;4.700;2023-06-14T13:11:03;29.10;43.10
17152;DHT22;8691;50.828;4.700;2023-06-14T13:13:40;29.10;42.90
17152;DHT22;8691;50.828;4.700;2023-06-14T13:16:17;29.10;42.10
17152;DHT22;8691;50.828;4.700;2023-06-14T13:18:54;29.10;42.00
17152;DHT22;8691;50.828;4.700;2023-06-14T13:21:31;29.00;42.50
17152;DHT22;8691;50.828;4.700;2023-06-14T13:24:08;28.90;42.40
17152;DHT22;8691;50.828;4.700;2023-06-14T13:26:44;29.00;42.10
17152;DHT22;8691;50.828;4.700;2023-06-14T13:29:22;29.00;42.70
17152;DHT22;8691;50.828;4.700;2023-06-14T13:31:58;29.20;41.90
17152;DHT22;8691;50.828;4.700;2023-06-14T13:34:35;28.90;40.90
17152;DHT22;8691;50.828;4.700;2023-06-14T13:37:11;28.90;41.40
17152;DHT22;8691;50.828;4.700;2023-06-14T13:39:48;28.70;41.50
17152;DHT22;8691;50.828;4.700;2023-06-14T13:42:25;28.90;41.10
17152;DHT22;8691;50.828;4.700;2023-06-14T13:45:02;29.00;41.30
17152;DHT22;8691;50.828;4.700;2023-06-14T13:47:38;29.00;41.70
17152;DHT22;8691;50.828;4.700;2023-06-14T13:50:14;28.90;41.50
17152;DHT22;8691;50.828;4.700;2023-06-14T13:52:51;29.00;41.50
17152;DHT22;8691;50.828;4.700;2023-06-14T13:55:28;28.90;41.70
17152;DHT22;8691;50.828;4.700;2023-06-14T13:58:05;28.90;40.70
17152;DHT22;8691;50.828;4.700;2023-06-14T14:00:41;28.70;40.60
17152;DHT22;8691;50.828;4.700;2023-06-14T14:03:18;28.60;41.10
17152;DHT22;8691;50.828;4.700;2023-06-14T14:05:55;28.80;41.10
17152;DHT22;8691;50.828;4.700;2023-06-14T14:08:31;28.70;40.60
17152;DHT22;8691;50.828;4.700;2023-06-14T14:11:09;28.80;40.70
17152;DHT22;8691;50.828;4.700;2023-06-14T14:13:46;28.70;40.60
17152;DHT22;8691;50.828;4.700;2023-06-14T14:16:23;28.70;40.90
17152;DHT22;8691;50.828;4.700;2023-06-14T14:18:59;28.50;40.50
17152;DHT22;8691;50.828;4.700;2023-06-14T14:21:36;28.40;41.20
17152;DHT22;8691;50.828;4.700;2023-06-14T14:24:13;28.60;42.20
17152;DHT22;8691;50.828;4.700;2023-06-14T14:26:49;28.70;41.70
17152;DHT22;8691;50.828;4.700;2023-06-14T14:29:26;28.70;40.90
17152;DHT22;8691;50.828;4.700;2023-06-14T14:32:02;28.40;41.00
17152;DHT22;8691;50.828;4.700;2023-06-14T14:34:39;28.40;42.00
17152;DHT22;8691;50.828;4.700;2023-06-14T14:37:17;28.60;41.70
17152;DHT22;8691;50.828;4.700;2023-06-14T14:39:53;28.50;41.30
17152;DHT22;8691;50.828;4.700;2023-06-14T14:42:30;28.50;41.50
17152;DHT22;8691;50.828;4.700;2023-06-14T14:45:07;28.40;41.70
17152;DHT22;8691;50.828;4.700;2023-06-14T14:47:43;28.40;41.90
17152;DHT22;8691;50.828;4.700;2023-06-14T14:50:20;28.20;42.20
17152;DHT22;8691;50.828;4.700;2023-06-14T14:52:56;28.30;41.90
17152;DHT22;8691;50.828;4.700;2023-06-14T14:55:33;28.20;41.50
17152;DHT22;8691;50.828;4.700;2023-06-14T14:58:11;28.20;42.10
17152;DHT22;8691;50.828;4.700;2023-06-14T15:00:46;28.20;42.50
17152;DHT22;8691;50.828;4.700;2023-06-14T15:03:23;28.10;42.70
17152;DHT22;8691;50.828;4.700;2023-06-14T15:06:00;28.10;42.30
17152;DHT22;8691;50.828;4.700;2023-06-14T15:08:37;28.10;42.30
17152;DHT22;8691;50.828;4.700;2023-06-14T15:11:14;28.30;43.00
17152;DHT22;8691;50.828;4.700;2023-06-14T15:13:50;28.40;42.80
17152;DHT22;8691;50.828;4.700;2023-06-14T15:16:27;28.50;42.00
17152;DHT22;8691;50.828;4.700;2023-06-14T15:19:04;28.30;41.50
17152;DHT22;8691;50.828;4.700;2023-06-14T15:21:40;28.10;41.30
17152;DHT22;8691;50.828;4.700;2023-06-14T15:24:17;28.00;42.40
17152;DHT22;8691;50.828;4.700;2023-06-14T15:26:54;28.10;42.60
17152;DHT22;8691;50.828;4.700;2023-06-14T15:29:30;28.20;42.60
17152;DHT22;8691;50.828;4.700;2023-06-14T15:32:08;28.00;42.30
17152;DHT22;8691;50.828;4.700;2023-06-14T15:34:44;28.00;42.20
17152;DHT22;8691;50.828;4.700;2023-06-14T15:37:21;28.00;43.20
17152;DHT22;8691;50.828;4.700;2023-06-14T15:39:58;28.10;42.90
17152;DHT22;8691;50.828;4.700;2023-06-14T15:42:34;28.10;43.20
17152;DHT22;8691;50.828;4.700;2023-06-14T15:45:11;28.00;43.60
17152;DHT22;8691;50.828;4.700;2023-06-14T15:47:48;28.00;44.20
17152;DHT22;8691;50.828;4.700;2023-06-14T15:50:25;28.00;44.20
17152;DHT22;8691;50.828;4.700;2023-06-14T15:53:02;28.00;44.70
17152;DHT22;8691;50.828;4.700;2023-06-14T15:55:38;28.00;44.90
17152;DHT22;8691;50.828;4.700;2023-06-14T15:58:15;28.00;44.60
17152;DHT22;8691;50.828;4.700;2023-06-14T16:00:52;27.90;44.10
17152;DHT22;8691;50.828;4.700;2023-06-14T16:03:28;27.70;44.40
17152;DHT22;8691;50.828;4.700;2023-06-14T16:06:05;27.70;44.10
17152;DHT22;8691;50.828;4.700;2023-06-14T16:08:41;27.70;45.50
17152;DHT22;8691;50.828;4.700;2023-06-14T16:11:18;27.70;43.80
17152;DHT22;8691;50.828;4.700;2023-06-14T16:13:55;27.60;44.00
17152;DHT22;8691;50.828;4.700;2023-06-14T16:16:31;27.50;43.60
17152;DHT22;8691;50.828;4.700;2023-06-14T16:19:09;27.40;43.90
17152;DHT22;8691;50.828;4.700;2023-06-14T16:21:45;27.40;43.50
17152;DHT22;8691;50.828;4.700;2023-06-14T16:24:22;27.30;44.00
17152;DHT22;8691;50.828;4.700;2023-06-14T16:26:59;27.20;44.40
17152;DHT22;8691;50.828;4.700;2023-06-14T16:29:35;27.30;43.80
17152;DHT22;8691;50.828;4.700;2023-06-14T16:32:12;27.30;43.50
17152;DHT22;8691;50.828;4.700;2023-06-14T16:34:49;27.10;43.50
17152;DHT22;8691;50.828;4.700;2023-06-14T16:37:25;27.00;42.90
17152;DHT22;8691;50.828;4.700;2023-06-14T16:40:02;26.90;43.80
17152;DHT22;8691;50.828;4.700;2023-06-14T16:42:39;26.80;43.30
17152;DHT22;8691;50.828;4.700;2023-06-14T16:45:16;26.90;44.10
17152;DHT22;8691;50.828;4.700;2023-06-14T16:47:52;26.90;44.20
17152;DHT22;8691;50.828;4.700;2023-06-14T16:50:29;27.00;43.90
17152;DHT22;8691;50.828;4.700;2023-06-14T16:53:06;27.10;43.80
17152;DHT22;8691;50.828;4.700;2023-06-14T16:55:42;26.90;43.30
17152;DHT22;8691;50.828;4.700;2023-06-14T16:58:20;27.00;44.20
17152;DHT22;8691;50.828;4.700;2023-06-14T17:00:56;27.00;44.30